createdAt,value
2019-04-07T00:02:18.470Z,31.70
2019-04-07T00:04:50.940Z,31.64
2019-04-07T00:07:22.899Z,31.77
2019-04-07T00:09:54.254Z,31.85
2019-04-07T00:12:26.461Z,31.82
2019-04-07T00:14:58.201Z,31.70
2019-04-07T00:17:31.130Z,31.68
2019-04-07T00:20:04.087Z,31.80
2019-04-07T00:22:36.836Z,31.81
2019-04-07T00:25:08.768Z,31.73
2019-04-07T00:27:40.432Z,31.75
2019-04-07T00:30:12.110Z,31.81
2019-04-07T00:32:44.261Z,31.88
2019-04-07T00:35:26.564Z,31.92
2019-04-07T00:37:50.752Z,31.90
2019-04-07T00:40:22.591Z,31.95
2019-04-07T00:42:58.205Z,31.98
2019-04-07T00:45:30.650Z,31.96
2019-04-07T00:48:01.917Z,31.96
2019-04-07T00:50:34.708Z,31.99
2019-04-07T00:53:12.364Z,32.00
2019-04-07T00:55:47.562Z,32.04
2019-04-07T00:58:19.349Z,32.05
2019-04-07T01:00:50.910Z,32.05
2019-04-07T01:03:22.652Z,32.05
2019-04-07T01:05:54.474Z,32.05
2019-04-07T01:08:28.158Z,32.04
2019-04-07T01:10:59.914Z,32.02
2019-04-07T01:13:31.047Z,32.02
2019-04-07T01:16:03.894Z,31.98
2019-04-07T01:18:37.057Z,31.95
2019-04-07T01:21:11.512Z,31.81
2019-04-07T01:23:44.581Z,31.79
2019-04-07T01:26:15.457Z,31.68
2019-04-07T01:28:48.239Z,31.72
2019-04-07T01:31:19.796Z,31.79
2019-04-07T01:33:55.336Z,31.73
2019-04-07T01:36:30.151Z,31.78
2019-04-07T01:39:01.461Z,31.79
2019-04-07T01:41:32.943Z,31.76
2019-04-07T01:44:06.541Z,31.69
2019-04-07T01:46:40.453Z,31.84
2019-04-07T01:49:13.481Z,31.90
2019-04-07T01:51:47.604Z,31.82
2019-04-07T01:54:21.812Z,31.87
2019-04-07T01:56:54.193Z,31.95
2019-04-07T02:01:55.189Z,32.12
2019-04-07T02:04:32.727Z,32.14
2019-04-07T02:07:05.082Z,32.23
2019-04-07T02:09:38.041Z,32.35
2019-04-07T02:12:11.539Z,32.42
2019-04-07T02:14:45.518Z,32.54
2019-04-07T02:17:17.850Z,32.60
2019-04-07T02:19:49.975Z,32.72
2019-04-07T02:22:25.584Z,32.84
2019-04-07T02:24:59.351Z,32.95
2019-04-07T02:27:33.424Z,33.04
2019-04-07T02:30:06.577Z,33.14
2019-04-07T02:32:48.393Z,33.31
2019-04-07T02:35:20.902Z,33.45
2019-04-07T02:37:54.700Z,33.55
2019-04-07T02:40:26.963Z,33.68
2019-04-07T02:42:59.244Z,33.87
2019-04-07T02:45:32.948Z,33.93
2019-04-07T02:48:07.068Z,34.02
2019-04-07T02:50:39.966Z,34.10
2019-04-07T02:53:19.603Z,33.97
2019-04-07T02:55:51.440Z,33.96
2019-04-07T02:58:22.764Z,33.94
2019-04-07T03:00:54.969Z,33.91
2019-04-07T03:03:34.561Z,33.93
2019-04-07T03:06:26.227Z,34.06
2019-04-07T03:08:49.215Z,34.26
2019-04-07T03:11:24.703Z,34.22
2019-04-07T03:13:57.353Z,34.25
2019-04-07T03:16:31.157Z,34.43
2019-04-07T03:19:04.485Z,34.56
2019-04-07T03:21:38.245Z,34.57
2019-04-07T03:24:14.086Z,34.56
2019-04-07T03:26:47.878Z,34.53
2019-04-07T03:29:25.502Z,34.57
2019-04-07T03:31:59.841Z,34.55
2019-04-07T03:34:33.949Z,34.50
2019-04-07T03:37:21.507Z,34.45
2019-04-07T03:39:43.773Z,34.42
2019-04-07T03:42:19.793Z,34.38
2019-04-07T03:44:53.272Z,34.34
2019-04-07T03:47:25.986Z,34.36
2019-04-07T03:50:00.205Z,34.32
2019-04-07T03:52:32.862Z,34.28
2019-04-07T03:55:06.640Z,34.20
2019-04-07T03:57:47.720Z,34.26
2019-04-07T04:00:29.533Z,34.31
2019-04-07T04:03:02.618Z,34.21
2019-04-07T04:05:45.314Z,34.33
2019-04-07T04:08:19.522Z,34.39
2019-04-07T04:10:51.774Z,34.44
2019-04-07T04:13:24.282Z,34.52
2019-04-07T04:15:58.851Z,34.64
2019-04-07T04:18:30.987Z,34.76
2019-04-07T04:21:02.208Z,34.88
2019-04-07T04:23:33.665Z,34.87
2019-04-07T04:26:05.079Z,34.98
2019-04-07T04:28:43.001Z,35.25
2019-04-07T04:31:19.579Z,35.42
2019-04-07T04:33:58.009Z,35.45
2019-04-07T04:36:31.619Z,35.47
2019-04-07T04:39:03.001Z,35.47
2019-04-07T04:41:40.804Z,35.58
2019-04-07T04:44:12.323Z,35.84
2019-04-07T04:46:48.736Z,35.79
2019-04-07T04:49:20.870Z,35.83
2019-04-07T04:52:00.692Z,35.96
2019-04-07T04:54:36.919Z,35.88
2019-04-07T04:57:14.600Z,34.93
2019-04-07T04:59:47.091Z,34.23
2019-04-07T05:02:17.821Z,33.72
2019-04-07T05:04:48.332Z,33.56
2019-04-07T05:07:23.060Z,33.48
2019-04-07T05:09:56.406Z,33.35
2019-04-07T05:12:27.686Z,33.31
2019-04-07T05:14:58.919Z,33.29
2019-04-07T05:17:29.719Z,33.27
2019-04-07T05:20:01.177Z,33.27
2019-04-07T05:22:32.096Z,33.27
2019-04-07T05:25:05.108Z,33.26
2019-04-07T05:27:43.583Z,33.14
2019-04-07T05:30:15.600Z,33.14
2019-04-07T06:36:35.187Z,33.35
2019-04-07T06:39:09.572Z,33.37
2019-04-07T06:41:42.398Z,33.41
2019-04-07T06:44:19.381Z,33.60
2019-04-07T06:46:48.016Z,33.72
2019-04-07T06:49:20.691Z,33.82
2019-04-07T06:51:53.204Z,33.89
2019-04-07T06:54:34.146Z,33.96
2019-04-07T06:57:07.364Z,33.99
2019-04-07T06:59:45.636Z,34.07
2019-04-07T07:02:30.219Z,34.11
2019-04-07T07:05:04.028Z,34.12
2019-04-07T07:07:36.568Z,34.11
2019-04-07T07:10:11.632Z,34.21
2019-04-07T07:12:47.659Z,34.21
2019-04-07T07:15:23.367Z,34.09
2019-04-07T07:17:59.012Z,34.04
2019-04-07T07:20:30.451Z,33.90
2019-04-07T07:23:03.895Z,33.79
2019-04-07T07:25:34.889Z,33.75
2019-04-07T07:28:07.573Z,33.49
2019-04-07T07:30:37.710Z,33.36
2019-04-07T07:33:11.030Z,33.25
2019-04-07T07:35:46.924Z,33.26
2019-04-07T07:38:15.697Z,33.20
2019-04-07T07:40:47.792Z,33.01
2019-04-07T07:43:17.639Z,32.95
2019-04-07T07:45:50.183Z,32.92
2019-04-07T07:48:26.203Z,32.91
2019-04-07T07:50:59.085Z,32.88
2019-04-07T07:53:33.272Z,32.91
2019-04-07T07:56:08.341Z,32.68
2019-04-07T07:58:40.668Z,32.79
2019-04-07T08:01:13.857Z,33.08
2019-04-07T08:03:45.885Z,32.76
2019-04-07T08:06:19.862Z,33.05
2019-04-07T08:08:51.543Z,33.24
2019-04-07T08:11:23.998Z,33.34
2019-04-07T08:14:01.253Z,33.27
2019-04-07T08:16:32.520Z,33.27
2019-04-07T08:19:04.148Z,33.32
2019-04-07T08:21:36.931Z,33.21
2019-04-07T08:24:09.010Z,33.25
2019-04-07T08:26:40.905Z,33.30
2019-04-07T08:29:13.832Z,33.29
2019-04-07T08:31:55.400Z,33.20
2019-04-07T08:34:26.535Z,33.32
2019-04-07T08:36:58.449Z,33.33
2019-04-07T08:39:33.563Z,33.18
2019-04-07T08:42:07.695Z,33.20
2019-04-07T08:44:35.497Z,33.32
2019-04-07T08:47:06.679Z,33.47
2019-04-07T08:49:38.081Z,33.56
2019-04-07T08:52:11.244Z,33.60
2019-04-07T08:54:42.163Z,33.61
2019-04-07T08:57:16.319Z,33.50
2019-04-07T08:59:48.375Z,33.39
2019-04-07T09:02:20.056Z,33.24
2019-04-07T09:04:52.448Z,33.15
2019-04-07T09:07:24.665Z,33.00
2019-04-07T09:09:57.803Z,32.85
2019-04-07T09:12:32.484Z,32.72
2019-04-07T09:15:05.235Z,32.71
2019-04-07T09:17:43.720Z,32.57
2019-04-07T09:20:12.168Z,32.35
2019-04-07T09:22:44.373Z,32.34
2019-04-07T09:25:18.230Z,32.32
2019-04-07T09:27:51.159Z,32.38
2019-04-07T09:30:22.521Z,32.32
2019-04-07T09:32:57.848Z,32.27
2019-04-07T09:35:32.074Z,32.42
2019-04-07T09:38:04.469Z,32.36
2019-04-07T09:40:39.430Z,32.42
2019-04-07T09:43:17.566Z,32.53
2019-04-07T09:45:49.462Z,32.52
2019-04-07T09:48:23.283Z,32.59
2019-04-07T09:51:05.065Z,32.67
2019-04-07T09:53:33.792Z,32.82
2019-04-07T09:56:08.599Z,32.80
2019-04-07T09:58:42.753Z,32.88
2019-04-07T10:01:17.592Z,32.94
2019-04-07T10:03:47.703Z,33.00
2019-04-07T10:06:20.233Z,33.05
2019-04-07T10:08:51.271Z,33.10
2019-04-07T10:11:23.546Z,33.17
2019-04-07T10:13:54.328Z,33.23
2019-04-07T10:16:31.280Z,33.22
2019-04-07T10:19:04.086Z,33.22
2019-04-07T10:21:35.064Z,33.20
2019-04-07T10:24:08.204Z,33.23
2019-04-07T10:26:40.308Z,33.26
2019-04-07T10:29:13.268Z,33.25
2019-04-07T10:31:47.552Z,33.28
2019-04-07T10:34:20.341Z,33.23
2019-04-07T10:36:53.251Z,33.27
2019-04-07T10:39:25.752Z,33.28
2019-04-07T10:41:58.898Z,33.26
2019-04-07T10:44:31.508Z,33.28
2019-04-07T10:47:03.880Z,33.26
2019-04-07T10:49:37.288Z,33.20
2019-04-07T10:52:11.225Z,33.22
2019-04-07T10:54:44.796Z,33.22
2019-04-07T10:57:15.614Z,33.19
2019-04-07T10:59:51.463Z,33.28
2019-04-07T11:02:24.890Z,33.24
2019-04-07T11:04:58.004Z,33.26
2019-04-07T11:07:34.283Z,33.26
2019-04-07T11:10:07.944Z,33.26
2019-04-07T11:12:42.377Z,33.26
2019-04-07T11:15:13.883Z,33.26
2019-04-07T11:17:47.237Z,33.21
2019-04-07T11:20:21.438Z,33.16
2019-04-07T11:22:56.296Z,33.17
2019-04-07T11:25:29.847Z,33.15
2019-04-07T11:28:05.965Z,33.15
2019-04-07T11:30:39.931Z,33.18
2019-04-07T11:33:12.904Z,33.09
2019-04-07T11:35:47.543Z,33.10
2019-04-07T11:38:23.197Z,33.13
2019-04-07T11:40:57.820Z,33.11
2019-04-07T11:43:30.610Z,33.10
2019-04-07T11:46:04.632Z,33.11
2019-04-07T11:48:36.762Z,33.12
2019-04-07T11:51:09.639Z,33.08
2019-04-07T11:53:42.540Z,33.09
2019-04-07T11:56:13.603Z,33.07
2019-04-07T11:58:45.882Z,33.05
2019-04-07T12:03:28.816Z,33.04
2019-04-07T12:06:01.372Z,32.84
2019-04-07T12:08:36.277Z,32.59
2019-04-07T12:11:07.628Z,32.58
2019-04-07T12:13:42.751Z,32.61
2019-04-07T12:16:14.589Z,32.66
2019-04-07T12:18:50.151Z,32.62
2019-04-07T12:21:23.149Z,32.59
2019-04-07T12:23:58.313Z,32.60
2019-04-07T12:26:34.610Z,32.61
2019-04-07T12:29:05.882Z,32.62
2019-04-07T12:31:41.154Z,32.53
2019-04-07T12:34:15.384Z,32.50
2019-04-07T12:36:48.404Z,32.49
2019-04-07T12:39:22.325Z,32.46
2019-04-07T12:41:58.050Z,32.51
2019-04-07T12:44:30.101Z,32.56
2019-04-07T12:47:04.862Z,32.63
2019-04-07T12:49:42.122Z,32.68
2019-04-07T12:53:40.134Z,32.85
2019-04-07T12:56:11.395Z,32.74
2019-04-07T12:58:47.473Z,32.66
2019-04-07T13:01:21.380Z,32.66
2019-04-07T13:03:55.859Z,32.73
2019-04-07T13:06:28.758Z,32.69
2019-04-07T13:09:08.145Z,32.65
2019-04-07T13:11:55.813Z,32.57
2019-04-07T13:14:26.974Z,32.53
2019-04-07T13:17:05.392Z,32.50
2019-04-07T13:19:44.870Z,32.48
2019-04-07T13:22:16.281Z,32.44
2019-04-07T13:24:50.988Z,32.48
2019-04-07T13:27:24.701Z,32.47
2019-04-07T13:30:08.455Z,32.28
2019-04-07T13:32:51.231Z,32.23
2019-04-07T13:35:23.352Z,32.11
2019-04-07T13:37:54.414Z,32.02
2019-04-07T13:40:30.663Z,31.97
2019-04-07T13:43:04.397Z,32.01
2019-04-07T13:45:36.994Z,31.85
2019-04-07T13:48:09.136Z,31.86
2019-04-07T13:50:41.793Z,31.80
2019-04-07T13:53:14.552Z,31.66
2019-04-07T13:55:46.916Z,31.60
2019-04-07T13:58:22.593Z,31.47
2019-04-07T14:00:55.834Z,31.37
2019-04-07T14:03:29.145Z,31.57
2019-04-07T14:06:02.314Z,31.60
2019-04-07T14:08:36.188Z,31.53
2019-04-07T14:11:10.919Z,31.51
2019-04-07T14:13:44.701Z,31.44
2019-04-07T14:16:19.613Z,31.40
2019-04-07T14:18:54.338Z,31.31
2019-04-07T14:21:29.519Z,31.25
2019-04-07T14:24:14.012Z,31.15
2019-04-07T14:27:10.255Z,31.02
2019-04-07T14:29:45.970Z,31.01
2019-04-07T14:32:31.315Z,30.95
2019-04-07T14:35:04.381Z,30.77
2019-04-07T14:37:46.219Z,30.99
2019-04-07T14:40:18.966Z,31.07
2019-04-07T14:42:53.446Z,31.22
2019-04-07T14:45:27.255Z,31.10
2019-04-07T14:49:27.855Z,31.41
2019-04-07T14:51:59.586Z,31.18
2019-04-07T14:54:34.690Z,31.26
2019-04-07T14:57:09.130Z,31.41
2019-04-07T14:59:49.665Z,31.38
2019-04-07T15:02:22.768Z,31.56
2019-04-07T15:04:56.902Z,31.68
2019-04-07T15:07:30.893Z,31.80
2019-04-07T15:10:03.277Z,31.91
2019-04-07T15:12:36.027Z,31.90
2019-04-07T15:15:11.209Z,32.01
2019-04-07T15:17:43.658Z,32.04
2019-04-07T15:20:15.735Z,31.85
2019-04-07T15:22:49.555Z,31.70
2019-04-07T15:25:23.167Z,31.78
2019-04-07T15:27:58.954Z,31.63
2019-04-07T15:30:38.402Z,31.59
2019-04-07T15:33:15.800Z,31.56
2019-04-07T15:35:59.234Z,31.47
2019-04-07T15:38:35.613Z,31.28
2019-04-07T15:41:15.340Z,31.28
2019-04-07T15:43:41.190Z,31.45
2019-04-07T15:46:22.477Z,31.27
2019-04-07T15:49:08.945Z,31.07
2019-04-07T15:51:41.627Z,30.49
2019-04-07T15:54:22.753Z,30.30
2019-04-07T15:56:53.784Z,30.07
2019-04-07T15:59:24.953Z,30.07
2019-04-07T16:01:57.130Z,30.07
2019-04-07T16:04:29.840Z,29.61
2019-04-07T16:07:02.358Z,29.32
2019-04-07T16:09:41.820Z,29.42
2019-04-07T16:12:14.516Z,29.27
2019-04-07T16:14:55.944Z,29.50
2019-04-07T16:17:27.701Z,29.11
2019-04-07T16:20:18.783Z,29.18
2019-04-07T16:22:51.883Z,29.38
2019-04-07T16:25:30.227Z,29.45
2019-04-07T16:28:02.353Z,29.29
2019-04-07T16:30:34.195Z,29.17
2019-04-07T16:33:05.698Z,29.32
2019-04-07T16:35:53.504Z,29.31
2019-04-07T16:38:24.230Z,29.21
2019-04-07T16:41:08.432Z,29.21
2019-04-07T16:43:40.909Z,29.42
2019-04-07T16:46:20.243Z,29.43
2019-04-07T16:48:47.659Z,29.43
2019-04-07T16:51:19.370Z,29.51
2019-04-07T16:54:00.317Z,29.46
2019-04-07T16:56:31.122Z,29.63
2019-04-07T16:59:03.041Z,29.59
2019-04-07T17:01:33.577Z,29.37
2019-04-07T17:04:06.374Z,29.29
2019-04-07T17:06:59.290Z,29.34
2019-04-07T17:09:34.415Z,29.38
2019-04-07T17:12:09.349Z,29.24
2019-04-07T17:14:38.131Z,29.28
2019-04-07T17:17:10.016Z,29.36
2019-04-07T17:19:43.614Z,29.35
2019-04-07T17:22:16.917Z,29.19
2019-04-07T17:24:52.019Z,29.48
2019-04-07T17:27:24.055Z,29.76
2019-04-07T17:29:56.623Z,29.93
2019-04-07T17:32:33.145Z,29.98
2019-04-07T17:35:02.779Z,30.07
2019-04-07T17:37:36.304Z,29.93
2019-04-07T17:40:13.243Z,30.02
2019-04-07T17:42:45.000Z,29.88
2019-04-07T17:45:20.371Z,29.83
2019-04-07T17:47:52.649Z,29.95
2019-04-07T17:50:31.513Z,29.62
2019-04-07T17:53:16.045Z,29.49
2019-04-07T17:55:46.668Z,29.51
2019-04-07T17:58:20.124Z,29.86
2019-04-07T18:00:54.414Z,29.76
2019-04-07T18:03:39.071Z,29.71
2019-04-07T18:06:11.208Z,29.60
2019-04-07T18:08:45.643Z,29.54
2019-04-07T18:11:17.718Z,29.38
2019-04-07T18:13:56.576Z,29.39
2019-04-07T18:16:32.662Z,29.44
2019-04-07T18:19:11.965Z,29.49
2019-04-07T18:21:51.550Z,29.23
2019-04-07T18:24:21.472Z,29.08
2019-04-07T18:26:55.392Z,29.19
2019-04-07T18:29:29.946Z,29.26
2019-04-07T18:32:02.000Z,29.13
2019-04-07T18:34:39.746Z,29.09
2019-04-07T18:37:12.929Z,29.03
2019-04-07T18:39:52.356Z,29.28
2019-04-07T18:42:20.832Z,29.56
2019-04-07T18:44:54.229Z,29.30
2019-04-07T18:47:27.356Z,29.19
2019-04-07T18:50:05.502Z,29.19
2019-04-07T18:52:35.763Z,29.31
2019-04-07T18:55:13.857Z,29.45
2019-04-07T18:57:47.523Z,29.32
2019-04-07T19:00:21.075Z,29.28
2019-04-07T19:02:53.701Z,29.46
2019-04-07T19:05:36.568Z,29.52
2019-04-07T19:08:10.015Z,29.32
2019-04-07T19:10:45.109Z,29.33
2019-04-07T19:13:26.948Z,29.40
2019-04-07T19:15:56.936Z,29.46
2019-04-07T19:18:29.228Z,29.42
2019-04-07T19:21:11.824Z,29.39
2019-04-07T19:23:43.603Z,29.35
2019-04-07T19:26:23.376Z,29.40
2019-04-07T19:28:56.484Z,29.34
2019-04-07T19:31:30.060Z,29.14
2019-04-07T19:34:04.782Z,29.22
2019-04-07T19:36:38.006Z,29.45
2019-04-07T19:39:12.915Z,29.33
2019-04-07T19:41:45.383Z,29.30
2019-04-07T19:44:18.793Z,29.27
2019-04-07T19:47:00.014Z,29.52
2019-04-07T19:49:32.540Z,29.63
2019-04-07T19:52:07.073Z,29.50
2019-04-07T19:54:39.938Z,29.50
2019-04-07T19:57:25.845Z,29.30
2019-04-07T19:59:58.729Z,29.72
2019-04-07T20:02:35.984Z,29.41
2019-04-07T20:05:08.000Z,29.17
2019-04-07T20:07:42.104Z,29.04
2019-04-07T20:10:19.889Z,29.56
2019-04-07T20:15:42.960Z,29.54
2019-04-07T20:18:15.297Z,29.42
2019-04-07T20:20:47.099Z,29.61
2019-04-07T20:23:20.203Z,29.80
2019-04-07T20:25:59.936Z,29.46
2019-04-07T20:28:32.911Z,29.36
2019-04-07T20:31:05.852Z,29.49
2019-04-07T20:33:38.092Z,29.59
2019-04-07T20:36:17.708Z,29.66
2019-04-07T20:38:44.974Z,29.34
2019-04-07T20:41:17.458Z,29.21
2019-04-07T20:43:55.887Z,29.36
2019-04-07T20:46:28.329Z,29.37
2019-04-07T20:49:02.821Z,29.42
2019-04-07T20:51:35.422Z,29.12
2019-04-07T20:54:09.737Z,29.03
2019-04-07T20:56:47.206Z,29.05
2019-04-07T20:59:20.446Z,29.29
2019-04-07T21:02:01.616Z,29.61
2019-04-07T21:04:34.224Z,29.31
2019-04-07T21:07:08.033Z,29.09
2019-04-07T21:09:40.611Z,29.00
2019-04-07T21:12:14.871Z,29.11
2019-04-07T21:14:47.364Z,29.46
2019-04-07T21:17:19.870Z,29.23
2019-04-07T21:19:52.359Z,29.22
2019-04-07T21:22:31.748Z,29.12
2019-04-07T21:25:11.960Z,29.30
2019-04-07T21:27:49.007Z,29.37
2019-04-07T21:30:22.735Z,29.22
2019-04-07T21:32:55.518Z,29.16
2019-04-07T21:35:29.197Z,29.03
2019-04-07T21:38:02.599Z,29.12
2019-04-07T21:40:39.513Z,29.29
2019-04-07T21:43:11.642Z,29.22
2019-04-07T21:45:49.870Z,29.23
2019-04-07T21:48:18.876Z,29.17
2019-04-07T21:50:51.732Z,29.14
2019-04-07T21:53:32.147Z,29.26
2019-04-07T21:56:14.146Z,29.28
2019-04-07T21:58:45.669Z,29.14
2019-04-07T22:01:18.716Z,29.21
2019-04-07T22:03:52.439Z,29.07
2019-04-07T22:06:26.555Z,29.28
2019-04-07T22:09:00.315Z,29.13
2019-04-07T22:11:32.665Z,29.08
2019-04-07T22:14:06.153Z,28.90
2019-04-07T22:16:37.733Z,28.78
2019-04-07T22:19:15.339Z,29.10
2019-04-07T22:21:53.230Z,29.39
2019-04-07T22:24:22.688Z,29.23
2019-04-07T22:26:55.112Z,29.10
2019-04-07T22:29:26.643Z,29.01
2019-04-07T22:31:59.872Z,28.90
2019-04-07T22:34:32.699Z,29.15
2019-04-07T22:37:04.779Z,29.09
2019-04-07T22:39:36.239Z,29.09
